sensor_id;sensor_type;location;lat;lon;timestamp;P1;durP1;ratioP1;P2;durP2;ratioP2
53594;SDS011;39479;45.720;11.310;2024-03-06T00:02:08;3.13;;;2.00;;
53594;SDS011;39479;45.720;11.310;2024-03-06T00:04:34;1.85;;;1.75;;
53594;SDS011;39479;45.720;11.310;2024-03-06T00:07:00;3.03;;;2.20;;
53594;SDS011;39479;45.720;11.310;2024-03-06T00:09:27;3.42;;;2.40;;
53594;SDS011;39479;45.720;11.310;2024-03-06T00:11:53;2.80;;;2.50;;
53594;SDS011;39479;45.720;11.310;2024-03-06T00:14:20;2.72;;;2.22;;
53594;SDS011;39479;45.720;11.310;2024-03-06T00:16:49;3.08;;;2.50;;
53594;SDS011;39479;45.720;11.310;2024-03-06T00:19:19;3.20;;;2.53;;
53594;SDS011;39479;45.720;11.310;2024-03-06T00:21:48;6.10;;;2.70;;
53594;SDS011;39479;45.720;11.310;2024-03-06T00:24:15;2.78;;;2.25;;
53594;SDS011;39479;45.720;11.310;2024-03-06T00:26:44;4.18;;;2.40;;
53594;SDS011;39479;45.720;11.310;2024-03-06T00:29:10;5.05;;;3.83;;
53594;SDS011;39479;45.720;11.310;2024-03-06T00:31:37;3.05;;;2.47;;
53594;SDS011;39479;45.720;11.310;2024-03-06T00:34:03;3.45;;;2.25;;
53594;SDS011;39479;45.720;11.310;2024-03-06T00:36:29;2.45;;;2.17;;
53594;SDS011;39479;45.720;11.310;2024-03-06T00:38:55;3.13;;;2.30;;
53594;SDS011;39479;45.720;11.310;2024-03-06T00:41:21;4.20;;;2.25;;
53594;SDS011;39479;45.720;11.310;2024-03-06T00:43:48;2.90;;;2.10;;
53594;SDS011;39479;45.720;11.310;2024-03-06T00:46:14;3.20;;;2.30;;
53594;SDS011;39479;45.720;11.310;2024-03-06T00:48:40;4.00;;;2.35;;
53594;SDS011;39479;45.720;11.310;2024-03-06T00:51:07;2.72;;;2.53;;
53594;SDS011;39479;45.720;11.310;2024-03-06T00:53:34;5.50;;;2.78;;
53594;SDS011;39479;45.720;11.310;2024-03-06T00:56:00;3.63;;;2.72;;
53594;SDS011;39479;45.720;11.310;2024-03-06T00:58:27;2.78;;;2.30;;
53594;SDS011;39479;45.720;11.310;2024-03-06T01:00:53;4.45;;;2.30;;
53594;SDS011;39479;45.720;11.310;2024-03-06T01:03:19;4.45;;;2.20;;
53594;SDS011;39479;45.720;11.310;2024-03-06T01:05:45;5.65;;;2.08;;
53594;SDS011;39479;45.720;11.310;2024-03-06T01:08:11;2.90;;;2.42;;
53594;SDS011;39479;45.720;11.310;2024-03-06T01:10:37;2.42;;;2.20;;
53594;SDS011;39479;45.720;11.310;2024-03-06T01:13:03;3.80;;;2.70;;
53594;SDS011;39479;45.720;11.310;2024-03-06T01:15:29;2.75;;;2.40;;
53594;SDS011;39479;45.720;11.310;2024-03-06T01:17:55;8.15;;;3.95;;
53594;SDS011;39479;45.720;11.310;2024-03-06T01:20:22;13.73;;;7.75;;
53594;SDS011;39479;45.720;11.310;2024-03-06T01:22:49;5.47;;;3.65;;
53594;SDS011;39479;45.720;11.310;2024-03-06T01:25:15;3.25;;;2.80;;
53594;SDS011;39479;45.720;11.310;2024-03-06T01:27:41;8.70;;;4.18;;
53594;SDS011;39479;45.720;11.310;2024-03-06T01:30:08;6.05;;;3.20;;
53594;SDS011;39479;45.720;11.310;2024-03-06T01:32:34;24.52;;;11.38;;
53594;SDS011;39479;45.720;11.310;2024-03-06T01:35:00;6.53;;;3.60;;
53594;SDS011;39479;45.720;11.310;2024-03-06T01:37:26;6.43;;;4.20;;
53594;SDS011;39479;45.720;11.310;2024-03-06T01:39:52;5.45;;;4.28;;
53594;SDS011;39479;45.720;11.310;2024-03-06T01:42:18;9.38;;;5.85;;
53594;SDS011;39479;45.720;11.310;2024-03-06T01:44:44;5.28;;;3.63;;
53594;SDS011;39479;45.720;11.310;2024-03-06T01:47:10;4.75;;;3.50;;
53594;SDS011;39479;45.720;11.310;2024-03-06T01:49:36;5.05;;;3.47;;
53594;SDS011;39479;45.720;11.310;2024-03-06T01:52:02;4.88;;;3.53;;
53594;SDS011;39479;45.720;11.310;2024-03-06T01:54:29;4.35;;;3.58;;
53594;SDS011;39479;45.720;11.310;2024-03-06T01:56:56;6.90;;;3.75;;
53594;SDS011;39479;45.720;11.310;2024-03-06T01:59:25;5.45;;;3.35;;
53594;SDS011;39479;45.720;11.310;2024-03-06T02:01:52;5.43;;;3.25;;
53594;SDS011;39479;45.720;11.310;2024-03-06T02:04:18;8.25;;;3.65;;
53594;SDS011;39479;45.720;11.310;2024-03-06T02:06:45;8.95;;;4.03;;
53594;SDS011;39479;45.720;11.310;2024-03-06T02:09:11;5.82;;;3.47;;
53594;SDS011;39479;45.720;11.310;2024-03-06T02:11:39;5.90;;;3.30;;
53594;SDS011;39479;45.720;11.310;2024-03-06T02:14:05;4.55;;;3.75;;
53594;SDS011;39479;45.720;11.310;2024-03-06T02:16:34;5.53;;;3.72;;
53594;SDS011;39479;45.720;11.310;2024-03-06T02:19:00;4.57;;;3.70;;
53594;SDS011;39479;45.720;11.310;2024-03-06T02:21:26;5.00;;;3.80;;
53594;SDS011;39479;45.720;11.310;2024-03-06T02:23:52;7.55;;;3.90;;
53594;SDS011;39479;45.720;11.310;2024-03-06T02:26:19;4.43;;;3.65;;
53594;SDS011;39479;45.720;11.310;2024-03-06T02:28:48;4.70;;;3.80;;
53594;SDS011;39479;45.720;11.310;2024-03-06T02:31:15;4.18;;;3.78;;
53594;SDS011;39479;45.720;11.310;2024-03-06T02:33:42;5.50;;;3.72;;
53594;SDS011;39479;45.720;11.310;2024-03-06T02:36:08;5.65;;;4.10;;
53594;SDS011;39479;45.720;11.310;2024-03-06T02:38:34;5.03;;;4.00;;
53594;SDS011;39479;45.720;11.310;2024-03-06T02:41:01;6.47;;;4.30;;
53594;SDS011;39479;45.720;11.310;2024-03-06T02:43:27;6.28;;;4.50;;
53594;SDS011;39479;45.720;11.310;2024-03-06T02:45:53;6.40;;;4.00;;
53594;SDS011;39479;45.720;11.310;2024-03-06T02:48:19;11.25;;;4.72;;
53594;SDS011;39479;45.720;11.310;2024-03-06T02:50:45;7.72;;;4.72;;
53594;SDS011;39479;45.720;11.310;2024-03-06T02:53:11;6.50;;;4.47;;
53594;SDS011;39479;45.720;11.310;2024-03-06T02:55:37;5.75;;;3.97;;
53594;SDS011;39479;45.720;11.310;2024-03-06T02:58:03;6.85;;;4.30;;
53594;SDS011;39479;45.720;11.310;2024-03-06T03:00:29;6.95;;;4.10;;
53594;SDS011;39479;45.720;11.310;2024-03-06T03:02:56;7.88;;;4.72;;
53594;SDS011;39479;45.720;11.310;2024-03-06T03:05:22;7.75;;;4.25;;
53594;SDS011;39479;45.720;11.310;2024-03-06T03:07:49;5.88;;;4.25;;
53594;SDS011;39479;45.720;11.310;2024-03-06T03:10:15;8.45;;;4.47;;
53594;SDS011;39479;45.720;11.310;2024-03-06T03:12:41;6.60;;;4.40;;
53594;SDS011;39479;45.720;11.310;2024-03-06T03:15:08;6.00;;;4.45;;
53594;SDS011;39479;45.720;11.310;2024-03-06T03:17:34;7.00;;;4.55;;
53594;SDS011;39479;45.720;11.310;2024-03-06T03:20:00;7.38;;;4.78;;
53594;SDS011;39479;45.720;11.310;2024-03-06T03:22:35;6.55;;;4.90;;
53594;SDS011;39479;45.720;11.310;2024-03-06T03:25:01;5.70;;;4.70;;
53594;SDS011;39479;45.720;11.310;2024-03-06T03:27:27;10.77;;;5.72;;
53594;SDS011;39479;45.720;11.310;2024-03-06T03:29:53;5.55;;;5.05;;
53594;SDS011;39479;45.720;11.310;2024-03-06T03:32:19;8.88;;;5.32;;
53594;SDS011;39479;45.720;11.310;2024-03-06T03:34:45;8.55;;;5.13;;
53594;SDS011;39479;45.720;11.310;2024-03-06T03:37:12;8.13;;;5.40;;
53594;SDS011;39479;45.720;11.310;2024-03-06T03:39:38;7.40;;;5.20;;
53594;SDS011;39479;45.720;11.310;2024-03-06T03:42:04;7.72;;;5.70;;
53594;SDS011;39479;45.720;11.310;2024-03-06T03:44:31;7.43;;;5.20;;
53594;SDS011;39479;45.720;11.310;2024-03-06T03:46:57;5.43;;;4.90;;
53594;SDS011;39479;45.720;11.310;2024-03-06T03:49:23;6.95;;;5.47;;
53594;SDS011;39479;45.720;11.310;2024-03-06T03:51:49;10.45;;;5.57;;
53594;SDS011;39479;45.720;11.310;2024-03-06T03:54:15;9.20;;;5.57;;
53594;SDS011;39479;45.720;11.310;2024-03-06T03:56:41;7.18;;;6.15;;
53594;SDS011;39479;45.720;11.310;2024-03-06T03:59:07;6.75;;;5.68;;
53594;SDS011;39479;45.720;11.310;2024-03-06T04:01:33;11.38;;;5.88;;
53594;SDS011;39479;45.720;11.310;2024-03-06T04:03:59;9.75;;;6.32;;
53594;SDS011;39479;45.720;11.310;2024-03-06T04:06:25;10.75;;;6.28;;
53594;SDS011;39479;45.720;11.310;2024-03-06T04:08:51;11.07;;;6.03;;
53594;SDS011;39479;45.720;11.310;2024-03-06T04:11:17;7.43;;;6.45;;
53594;SDS011;39479;45.720;11.310;2024-03-06T04:13:43;8.82;;;6.60;;
53594;SDS011;39479;45.720;11.310;2024-03-06T04:16:15;7.80;;;6.65;;
53594;SDS011;39479;45.720;11.310;2024-03-06T04:18:41;6.68;;;5.88;;
53594;SDS011;39479;45.720;11.310;2024-03-06T04:21:07;9.07;;;6.80;;
53594;SDS011;39479;45.720;11.310;2024-03-06T04:23:35;12.90;;;6.60;;
53594;SDS011;39479;45.720;11.310;2024-03-06T04:26:01;7.95;;;7.13;;
53594;SDS011;39479;45.720;11.310;2024-03-06T04:28:28;7.78;;;6.97;;
53594;SDS011;39479;45.720;11.310;2024-03-06T04:30:55;7.50;;;6.13;;
53594;SDS011;39479;45.720;11.310;2024-03-06T04:33:21;9.80;;;6.45;;
53594;SDS011;39479;45.720;11.310;2024-03-06T04:35:47;9.38;;;6.68;;
53594;SDS011;39479;45.720;11.310;2024-03-06T04:38:13;8.35;;;6.72;;
53594;SDS011;39479;45.720;11.310;2024-03-06T04:40:39;8.45;;;6.95;;
53594;SDS011;39479;45.720;11.310;2024-03-06T04:43:05;12.23;;;7.10;;
53594;SDS011;39479;45.720;11.310;2024-03-06T04:45:32;9.30;;;6.82;;
53594;SDS011;39479;45.720;11.310;2024-03-06T04:47:58;9.40;;;6.32;;
53594;SDS011;39479;45.720;11.310;2024-03-06T04:50:24;8.38;;;5.95;;
53594;SDS011;39479;45.720;11.310;2024-03-06T04:52:52;7.45;;;6.22;;
53594;SDS011;39479;45.720;11.310;2024-03-06T04:55:18;9.38;;;6.82;;
53594;SDS011;39479;45.720;11.310;2024-03-06T04:57:48;9.30;;;7.00;;
53594;SDS011;39479;45.720;11.310;2024-03-06T05:00:14;10.07;;;7.63;;
53594;SDS011;39479;45.720;11.310;2024-03-06T05:02:41;13.90;;;6.97;;
53594;SDS011;39479;45.720;11.310;2024-03-06T05:05:07;8.52;;;6.40;;
53594;SDS011;39479;45.720;11.310;2024-03-06T05:07:33;9.32;;;6.40;;
53594;SDS011;39479;45.720;11.310;2024-03-06T05:09:59;9.38;;;7.05;;
53594;SDS011;39479;45.720;11.310;2024-03-06T05:12:26;9.88;;;6.72;;
53594;SDS011;39479;45.720;11.310;2024-03-06T05:14:53;10.05;;;6.65;;
53594;SDS011;39479;45.720;11.310;2024-03-06T05:17:19;9.48;;;6.50;;
53594;SDS011;39479;45.720;11.310;2024-03-06T05:19:46;12.65;;;7.07;;
53594;SDS011;39479;45.720;11.310;2024-03-06T05:22:12;7.53;;;6.78;;
53594;SDS011;39479;45.720;11.310;2024-03-06T05:24:39;8.75;;;5.90;;
53594;SDS011;39479;45.720;11.310;2024-03-06T05:27:05;7.25;;;5.97;;
53594;SDS011;39479;45.720;11.310;2024-03-06T05:29:31;29.23;;;14.93;;
53594;SDS011;39479;45.720;11.310;2024-03-06T05:31:57;30.83;;;15.40;;
53594;SDS011;39479;45.720;11.310;2024-03-06T05:34:23;12.23;;;8.75;;
53594;SDS011;39479;45.720;11.310;2024-03-06T05:36:50;11.10;;;7.25;;
53594;SDS011;39479;45.720;11.310;2024-03-06T05:39:16;10.18;;;6.93;;
53594;SDS011;39479;45.720;11.310;2024-03-06T05:41:42;38.42;;;16.58;;
53594;SDS011;39479;45.720;11.310;2024-03-06T05:44:09;63.45;;;25.38;;
53594;SDS011;39479;45.720;11.310;2024-03-06T05:46:35;111.03;;;41.58;;
53594;SDS011;39479;45.720;11.310;2024-03-06T05:49:01;11.95;;;8.52;;
53594;SDS011;39479;45.720;11.310;2024-03-06T05:51:28;10.95;;;8.15;;
53594;SDS011;39479;45.720;11.310;2024-03-06T05:53:54;15.15;;;9.77;;
53594;SDS011;39479;45.720;11.310;2024-03-06T05:56:20;12.10;;;8.27;;
53594;SDS011;39479;45.720;11.310;2024-03-06T05:58:46;18.10;;;10.18;;
53594;SDS011;39479;45.720;11.310;2024-03-06T06:01:13;20.52;;;10.82;;
53594;SDS011;39479;45.720;11.310;2024-03-06T06:03:40;21.95;;;12.57;;
53594;SDS011;39479;45.720;11.310;2024-03-06T06:06:06;21.60;;;13.13;;
53594;SDS011;39479;45.720;11.310;2024-03-06T06:08:35;26.17;;;13.90;;
53594;SDS011;39479;45.720;11.310;2024-03-06T06:11:02;15.75;;;10.52;;
53594;SDS011;39479;45.720;11.310;2024-03-06T06:13:28;14.68;;;10.73;;
53594;SDS011;39479;45.720;11.310;2024-03-06T06:15:54;57.40;;;25.73;;
53594;SDS011;39479;45.720;11.310;2024-03-06T06:18:20;22.95;;;12.50;;
53594;SDS011;39479;45.720;11.310;2024-03-06T06:20:46;13.85;;;8.50;;
53594;SDS011;39479;45.720;11.310;2024-03-06T06:23:12;30.20;;;15.48;;
53594;SDS011;39479;45.720;11.310;2024-03-06T06:25:38;55.40;;;24.42;;
53594;SDS011;39479;45.720;11.310;2024-03-06T06:28:04;20.10;;;10.35;;
53594;SDS011;39479;45.720;11.310;2024-03-06T06:30:31;17.63;;;7.97;;
53594;SDS011;39479;45.720;11.310;2024-03-06T06:32:58;21.00;;;9.52;;
53594;SDS011;39479;45.720;11.310;2024-03-06T06:35:24;12.48;;;6.82;;
53594;SDS011;39479;45.720;11.310;2024-03-06T06:37:50;19.17;;;11.40;;
53594;SDS011;39479;45.720;11.310;2024-03-06T06:40:16;31.85;;;15.38;;
53594;SDS011;39479;45.720;11.310;2024-03-06T06:42:45;11.25;;;8.88;;
53594;SDS011;39479;45.720;11.310;2024-03-06T06:45:17;22.20;;;13.05;;
53594;SDS011;39479;45.720;11.310;2024-03-06T06:47:44;35.65;;;16.52;;
53594;SDS011;39479;45.720;11.310;2024-03-06T06:50:10;24.80;;;13.88;;
53594;SDS011;39479;45.720;11.310;2024-03-06T06:52:37;17.50;;;10.57;;
53594;SDS011;39479;45.720;11.310;2024-03-06T06:55:03;14.48;;;9.40;;
53594;SDS011;39479;45.720;11.310;2024-03-06T06:57:30;15.25;;;8.55;;
53594;SDS011;39479;45.720;11.310;2024-03-06T06:59:58;37.72;;;20.52;;
53594;SDS011;39479;45.720;11.310;2024-03-06T07:02:24;20.48;;;10.98;;
53594;SDS011;39479;45.720;11.310;2024-03-06T07:04:50;13.50;;;8.85;;
53594;SDS011;39479;45.720;11.310;2024-03-06T07:07:16;15.27;;;9.80;;
53594;SDS011;39479;45.720;11.310;2024-03-06T07:09:42;20.10;;;11.07;;
53594;SDS011;39479;45.720;11.310;2024-03-06T07:12:09;19.25;;;11.45;;
53594;SDS011;39479;45.720;11.310;2024-03-06T07:14:35;28.08;;;15.15;;
53594;SDS011;39479;45.720;11.310;2024-03-06T07:17:01;16.42;;;9.57;;
53594;SDS011;39479;45.720;11.310;2024-03-06T07:19:28;21.58;;;12.38;;
53594;SDS011;39479;45.720;11.310;2024-03-06T07:21:54;15.45;;;9.43;;
53594;SDS011;39479;45.720;11.310;2024-03-06T07:24:20;29.48;;;14.23;;
53594;SDS011;39479;45.720;11.310;2024-03-06T07:26:46;28.92;;;15.65;;
53594;SDS011;39479;45.720;11.310;2024-03-06T07:29:12;17.83;;;9.73;;
53594;SDS011;39479;45.720;11.310;2024-03-06T07:31:40;25.42;;;12.95;;
53594;SDS011;39479;45.720;11.310;2024-03-06T07:34:07;18.45;;;11.07;;
53594;SDS011;39479;45.720;11.310;2024-03-06T07:36:33;19.00;;;13.48;;
53594;SDS011;39479;45.720;11.310;2024-03-06T07:39:00;17.50;;;11.27;;
53594;SDS011;39479;45.720;11.310;2024-03-06T07:41:26;27.50;;;14.65;;
53594;SDS011;39479;45.720;11.310;2024-03-06T07:43:52;39.45;;;20.10;;
53594;SDS011;39479;45.720;11.310;2024-03-06T07:46:18;17.63;;;10.00;;
53594;SDS011;39479;45.720;11.310;2024-03-06T07:48:44;19.88;;;12.35;;
53594;SDS011;39479;45.720;11.310;2024-03-06T07:51:10;48.22;;;24.85;;
53594;SDS011;39479;45.720;11.310;2024-03-06T07:53:36;28.65;;;15.65;;
53594;SDS011;39479;45.720;11.310;2024-03-06T07:56:03;21.38;;;13.23;;
53594;SDS011;39479;45.720;11.310;2024-03-06T07:58:29;88.30;;;36.80;;
53594;SDS011;39479;45.720;11.310;2024-03-06T08:00:56;28.42;;;18.10;;
53594;SDS011;39479;45.720;11.310;2024-03-06T08:03:22;20.65;;;14.13;;
53594;SDS011;39479;45.720;11.310;2024-03-06T08:05:52;15.73;;;10.20;;
53594;SDS011;39479;45.720;11.310;2024-03-06T08:08:18;17.42;;;12.27;;
53594;SDS011;39479;45.720;11.310;2024-03-06T08:10:45;40.78;;;18.45;;
53594;SDS011;39479;45.720;11.310;2024-03-06T08:13:11;14.65;;;8.90;;
53594;SDS011;39479;45.720;11.310;2024-03-06T08:15:37;18.60;;;12.15;;
53594;SDS011;39479;45.720;11.310;2024-03-06T08:18:04;22.10;;;13.27;;
53594;SDS011;39479;45.720;11.310;2024-03-06T08:20:30;16.98;;;12.07;;
53594;SDS011;39479;45.720;11.310;2024-03-06T08:22:56;26.63;;;17.92;;
53594;SDS011;39479;45.720;11.310;2024-03-06T08:25:22;27.55;;;16.05;;
53594;SDS011;39479;45.720;11.310;2024-03-06T08:27:48;23.92;;;12.10;;
53594;SDS011;39479;45.720;11.310;2024-03-06T08:30:14;20.38;;;11.13;;
53594;SDS011;39479;45.720;11.310;2024-03-06T08:32:41;10.80;;;7.05;;
53594;SDS011;39479;45.720;11.310;2024-03-06T08:35:09;19.52;;;11.90;;
53594;SDS011;39479;45.720;11.310;2024-03-06T08:37:39;19.90;;;11.13;;
53594;SDS011;39479;45.720;11.310;2024-03-06T08:40:05;11.80;;;6.55;;
53594;SDS011;39479;45.720;11.310;2024-03-06T08:42:39;34.00;;;16.15;;
53594;SDS011;39479;45.720;11.310;2024-03-06T08:45:06;27.38;;;16.30;;
53594;SDS011;39479;45.720;11.310;2024-03-06T08:47:33;27.35;;;18.58;;
53594;SDS011;39479;45.720;11.310;2024-03-06T08:49:59;28.65;;;20.65;;
53594;SDS011;39479;45.720;11.310;2024-03-06T08:52:25;27.33;;;18.13;;
53594;SDS011;39479;45.720;11.310;2024-03-06T08:54:51;30.45;;;17.33;;
53594;SDS011;39479;45.720;11.310;2024-03-06T08:57:18;23.90;;;12.35;;
53594;SDS011;39479;45.720;11.310;2024-03-06T08:59:46;18.48;;;11.27;;
53594;SDS011;39479;45.720;11.310;2024-03-06T09:02:16;15.30;;;10.25;;
53594;SDS011;39479;45.720;11.310;2024-03-06T09:04:44;19.98;;;12.52;;
53594;SDS011;39479;45.720;11.310;2024-03-06T09:07:10;15.07;;;9.15;;
53594;SDS011;39479;45.720;11.310;2024-03-06T09:09:36;10.95;;;8.23;;
53594;SDS011;39479;45.720;11.310;2024-03-06T09:12:06;10.40;;;5.85;;
53594;SDS011;39479;45.720;11.310;2024-03-06T09:14:33;13.85;;;9.10;;
53594;SDS011;39479;45.720;11.310;2024-03-06T09:16:59;15.02;;;8.52;;
53594;SDS011;39479;45.720;11.310;2024-03-06T09:19:26;12.82;;;7.70;;
53594;SDS011;39479;45.720;11.310;2024-03-06T09:21:52;8.13;;;5.38;;
53594;SDS011;39479;45.720;11.310;2024-03-06T09:24:19;8.38;;;4.53;;
53594;SDS011;39479;45.720;11.310;2024-03-06T09:26:45;11.60;;;6.53;;
53594;SDS011;39479;45.720;11.310;2024-03-06T09:29:12;10.57;;;6.55;;
53594;SDS011;39479;45.720;11.310;2024-03-06T09:31:38;11.05;;;5.03;;
53594;SDS011;39479;45.720;11.310;2024-03-06T09:34:04;11.80;;;4.93;;
53594;SDS011;39479;45.720;11.310;2024-03-06T09:36:30;9.07;;;5.72;;
53594;SDS011;39479;45.720;11.310;2024-03-06T09:38:58;15.50;;;8.10;;
53594;SDS011;39479;45.720;11.310;2024-03-06T09:41:24;9.90;;;4.95;;
53594;SDS011;39479;45.720;11.310;2024-03-06T09:43:50;8.57;;;4.57;;
53594;SDS011;39479;45.720;11.310;2024-03-06T09:46:17;12.75;;;7.32;;
53594;SDS011;39479;45.720;11.310;2024-03-06T09:48:45;11.38;;;4.80;;
53594;SDS011;39479;45.720;11.310;2024-03-06T09:51:11;8.82;;;6.00;;
53594;SDS011;39479;45.720;11.310;2024-03-06T09:53:39;16.00;;;9.15;;
53594;SDS011;39479;45.720;11.310;2024-03-06T09:56:05;14.63;;;8.63;;
53594;SDS011;39479;45.720;11.310;2024-03-06T09:58:31;14.18;;;7.43;;
53594;SDS011;39479;45.720;11.310;2024-03-06T10:01:00;10.27;;;5.88;;
53594;SDS011;39479;45.720;11.310;2024-03-06T10:03:28;9.93;;;5.75;;
53594;SDS011;39479;45.720;11.310;2024-03-06T10:05:55;13.50;;;8.95;;
53594;SDS011;39479;45.720;11.310;2024-03-06T10:08:21;12.38;;;5.57;;
53594;SDS011;39479;45.720;11.310;2024-03-06T10:10:50;11.32;;;5.15;;
53594;SDS011;39479;45.720;11.310;2024-03-06T10:13:16;6.45;;;4.57;;
53594;SDS011;39479;45.720;11.310;2024-03-06T10:15:55;8.77;;;5.13;;
53594;SDS011;39479;45.720;11.310;2024-03-06T10:18:21;8.15;;;4.43;;
53594;SDS011;39479;45.720;11.310;2024-03-06T10:20:47;8.52;;;5.22;;
53594;SDS011;39479;45.720;11.310;2024-03-06T10:23:14;7.78;;;5.28;;
53594;SDS011;39479;45.720;11.310;2024-03-06T10:25:42;9.77;;;5.25;;
53594;SDS011;39479;45.720;11.310;2024-03-06T10:28:10;8.38;;;4.70;;
53594;SDS011;39479;45.720;11.310;2024-03-06T10:30:38;8.77;;;4.50;;
53594;SDS011;39479;45.720;11.310;2024-03-06T10:33:07;9.20;;;5.43;;
53594;SDS011;39479;45.720;11.310;2024-03-06T10:35:33;11.48;;;4.90;;
53594;SDS011;39479;45.720;11.310;2024-03-06T10:38:01;9.77;;;5.35;;
53594;SDS011;39479;45.720;11.310;2024-03-06T10:40:27;9.23;;;5.85;;
53594;SDS011;39479;45.720;11.310;2024-03-06T10:42:56;7.85;;;4.30;;
53594;SDS011;39479;45.720;11.310;2024-03-06T10:45:23;14.52;;;6.45;;
53594;SDS011;39479;45.720;11.310;2024-03-06T10:47:51;7.30;;;4.53;;
53594;SDS011;39479;45.720;11.310;2024-03-06T10:50:18;6.50;;;3.95;;
53594;SDS011;39479;45.720;11.310;2024-03-06T10:52:46;5.85;;;3.92;;
53594;SDS011;39479;45.720;11.310;2024-03-06T10:55:12;8.50;;;5.95;;
53594;SDS011;39479;45.720;11.310;2024-03-06T10:57:38;9.13;;;4.80;;
53594;SDS011;39479;45.720;11.310;2024-03-06T11:00:05;5.30;;;4.22;;
53594;SDS011;39479;45.720;11.310;2024-03-06T11:02:31;13.18;;;4.82;;
53594;SDS011;39479;45.720;11.310;2024-03-06T11:04:57;9.23;;;5.57;;
53594;SDS011;39479;45.720;11.310;2024-03-06T11:07:24;9.57;;;5.30;;
53594;SDS011;39479;45.720;11.310;2024-03-06T11:09:50;10.27;;;6.25;;
53594;SDS011;39479;45.720;11.310;2024-03-06T11:12:34;14.95;;;7.05;;
53594;SDS011;39479;45.720;11.310;2024-03-06T11:15:07;7.18;;;5.15;;
53594;SDS011;39479;45.720;11.310;2024-03-06T11:17:34;7.90;;;5.03;;
53594;SDS011;39479;45.720;11.310;2024-03-06T11:28:04;12.35;;;7.25;;
53594;SDS011;39479;45.720;11.310;2024-03-06T11:30:30;14.50;;;8.38;;
53594;SDS011;39479;45.720;11.310;2024-03-06T11:32:57;7.80;;;5.68;;
53594;SDS011;39479;45.720;11.310;2024-03-06T11:35:24;9.50;;;6.43;;
53594;SDS011;39479;45.720;11.310;2024-03-06T11:37:50;9.32;;;5.68;;
53594;SDS011;39479;45.720;11.310;2024-03-06T11:40:22;10.30;;;6.78;;
53594;SDS011;39479;45.720;11.310;2024-03-06T11:45:18;11.55;;;6.68;;
53594;SDS011;39479;45.720;11.310;2024-03-06T11:48:23;12.88;;;7.60;;
53594;SDS011;39479;45.720;11.310;2024-03-06T11:50:42;12.75;;;6.63;;
53594;SDS011;39479;45.720;11.310;2024-03-06T11:53:08;11.98;;;7.85;;
53594;SDS011;39479;45.720;11.310;2024-03-06T11:55:34;10.35;;;7.43;;
53594;SDS011;39479;45.720;11.310;2024-03-06T11:58:00;11.50;;;7.25;;
53594;SDS011;39479;45.720;11.310;2024-03-06T12:00:29;10.57;;;7.32;;
53594;SDS011;39479;45.720;11.310;2024-03-06T12:02:55;7.93;;;5.15;;
53594;SDS011;39479;45.720;11.310;2024-03-06T12:05:24;8.23;;;5.18;;
53594;SDS011;39479;45.720;11.310;2024-03-06T12:07:52;8.20;;;5.95;;
53594;SDS011;39479;45.720;11.310;2024-03-06T12:10:19;6.63;;;4.90;;
53594;SDS011;39479;45.720;11.310;2024-03-06T12:12:45;9.40;;;5.57;;
53594;SDS011;39479;45.720;11.310;2024-03-06T12:15:11;7.78;;;5.65;;
53594;SDS011;39479;45.720;11.310;2024-03-06T12:17:45;7.53;;;5.78;;
53594;SDS011;39479;45.720;11.310;2024-03-06T12:20:12;10.05;;;6.15;;
53594;SDS011;39479;45.720;11.310;2024-03-06T12:22:51;7.22;;;4.85;;
53594;SDS011;39479;45.720;11.310;2024-03-06T12:25:20;5.68;;;4.15;;
53594;SDS011;39479;45.720;11.310;2024-03-06T12:27:47;6.40;;;4.25;;
53594;SDS011;39479;45.720;11.310;2024-03-06T12:30:15;7.40;;;4.18;;
53594;SDS011;39479;45.720;11.310;2024-03-06T12:32:43;7.72;;;5.28;;
53594;SDS011;39479;45.720;11.310;2024-03-06T12:35:09;10.57;;;6.07;;
53594;SDS011;39479;45.720;11.310;2024-03-06T12:37:35;8.70;;;5.22;;
53594;SDS011;39479;45.720;11.310;2024-03-06T12:40:02;14.20;;;7.68;;
53594;SDS011;39479;45.720;11.310;2024-03-06T12:42:29;5.55;;;4.32;;
53594;SDS011;39479;45.720;11.310;2024-03-06T12:44:56;21.27;;;9.95;;
53594;SDS011;39479;45.720;11.310;2024-03-06T12:47:22;29.02;;;14.23;;
53594;SDS011;39479;45.720;11.310;2024-03-06T12:49:48;18.42;;;9.57;;
53594;SDS011;39479;45.720;11.310;2024-03-06T12:52:15;10.85;;;7.07;;
53594;SDS011;39479;45.720;11.310;2024-03-06T12:54:41;10.13;;;6.60;;
53594;SDS011;39479;45.720;11.310;2024-03-06T12:57:07;8.43;;;5.05;;
53594;SDS011;39479;45.720;11.310;2024-03-06T12:59:33;10.68;;;6.70;;
53594;SDS011;39479;45.720;11.310;2024-03-06T13:02:00;11.15;;;6.95;;
53594;SDS011;39479;45.720;11.310;2024-03-06T13:04:26;6.78;;;5.10;;
53594;SDS011;39479;45.720;11.310;2024-03-06T13:06:52;5.75;;;4.10;;
53594;SDS011;39479;45.720;11.310;2024-03-06T13:09:18;12.27;;;7.78;;
53594;SDS011;39479;45.720;11.310;2024-03-06T13:11:44;17.25;;;9.60;;
53594;SDS011;39479;45.720;11.310;2024-03-06T13:14:10;12.02;;;7.00;;
53594;SDS011;39479;45.720;11.310;2024-03-06T13:16:37;6.90;;;3.60;;
53594;SDS011;39479;45.720;11.310;2024-03-06T13:19:03;10.05;;;7.47;;
53594;SDS011;39479;45.720;11.310;2024-03-06T13:21:29;8.05;;;5.55;;
53594;SDS011;39479;45.720;11.310;2024-03-06T13:23:55;6.03;;;4.80;;
53594;SDS011;39479;45.720;11.310;2024-03-06T13:26:21;8.05;;;4.65;;
53594;SDS011;39479;45.720;11.310;2024-03-06T13:28:47;12.75;;;8.05;;
53594;SDS011;39479;45.720;11.310;2024-03-06T13:31:13;8.13;;;5.72;;
53594;SDS011;39479;45.720;11.310;2024-03-06T13:33:39;16.83;;;11.10;;
53594;SDS011;39479;45.720;11.310;2024-03-06T13:36:05;12.73;;;8.75;;
53594;SDS011;39479;45.720;11.310;2024-03-06T13:38:33;8.43;;;5.10;;
53594;SDS011;39479;45.720;11.310;2024-03-06T13:40:59;6.82;;;4.97;;
53594;SDS011;39479;45.720;11.310;2024-03-06T13:43:27;5.75;;;3.90;;
53594;SDS011;39479;45.720;11.310;2024-03-06T13:45:53;7.65;;;5.57;;
53594;SDS011;39479;45.720;11.310;2024-03-06T13:48:20;8.70;;;7.03;;
53594;SDS011;39479;45.720;11.310;2024-03-06T13:50:47;10.98;;;6.95;;
53594;SDS011;39479;45.720;11.310;2024-03-06T13:53:13;9.15;;;5.47;;
53594;SDS011;39479;45.720;11.310;2024-03-06T13:55:39;6.45;;;4.55;;
53594;SDS011;39479;45.720;11.310;2024-03-06T13:58:06;30.27;;;13.27;;
53594;SDS011;39479;45.720;11.310;2024-03-06T14:00:32;28.92;;;12.38;;
53594;SDS011;39479;45.720;11.310;2024-03-06T14:03:00;39.25;;;15.80;;
53594;SDS011;39479;45.720;11.310;2024-03-06T14:05:26;17.52;;;9.77;;
53594;SDS011;39479;45.720;11.310;2024-03-06T14:07:53;9.57;;;5.57;;
53594;SDS011;39479;45.720;11.310;2024-03-06T14:10:20;8.25;;;5.65;;
53594;SDS011;39479;45.720;11.310;2024-03-06T14:12:48;11.80;;;6.68;;
53594;SDS011;39479;45.720;11.310;2024-03-06T14:15:17;7.55;;;5.50;;
53594;SDS011;39479;45.720;11.310;2024-03-06T14:17:44;13.00;;;8.73;;
53594;SDS011;39479;45.720;11.310;2024-03-06T14:20:10;19.75;;;12.88;;
53594;SDS011;39479;45.720;11.310;2024-03-06T14:22:41;10.32;;;7.20;;
53594;SDS011;39479;45.720;11.310;2024-03-06T14:25:07;12.60;;;8.68;;
53594;SDS011;39479;45.720;11.310;2024-03-06T14:27:33;14.85;;;9.00;;
53594;SDS011;39479;45.720;11.310;2024-03-06T14:30:03;19.42;;;11.82;;
53594;SDS011;39479;45.720;11.310;2024-03-06T14:32:29;23.13;;;14.20;;
53594;SDS011;39479;45.720;11.310;2024-03-06T14:34:55;90.90;;;41.58;;